createdAt,value
2016-07-24T00:00:14.407Z,59.50
2016-07-24T00:01:15.153Z,59.60
2016-07-24T00:02:10.815Z,is
2016-07-24T00:03:21.861Z,59.50
2016-07-24T00:04:15.522Z,59.60
2016-07-24T00:05:11.337Z,is
2016-07-24T00:06:18.083Z,59.40
2016-07-24T00:07:11.727Z,59.50
2016-07-24T00:08:21.234Z,59.70
2016-07-24T00:09:13.609Z,59.50
2016-07-24T00:10:14.849Z,59.40
2016-07-24T00:11:12.943Z,59.40
2016-07-24T00:12:18.447Z,59.50
2016-07-24T00:13:13.934Z,59.40
2016-07-24T00:14:12.685Z,59.40
2016-07-24T00:15:12.223Z,59.50
2016-07-24T00:16:19.603Z,59.60
2016-07-24T00:17:12.891Z,59.40
2016-07-24T00:18:17.979Z,59.60
2016-07-24T00:19:11.448Z,58.80
2016-07-24T00:20:10.883Z,is
2016-07-24T00:21:12.424Z,59.40
2016-07-24T00:22:12.649Z,59.40
2016-07-24T00:23:10.219Z,is
2016-07-24T00:24:12.601Z,59.50
2016-07-24T00:25:13.236Z,59.60
2016-07-24T00:26:19.678Z,59.40
2016-07-24T00:27:10.513Z,is
2016-07-24T00:28:11.966Z,is
2016-07-24T00:29:10.666Z,is
2016-07-24T00:30:12.009Z,59.50
2016-07-24T00:31:15.106Z,59.60
2016-07-24T00:32:12.233Z,59.60
2016-07-24T00:33:15.017Z,59.40
2016-07-24T00:34:20.970Z,59.40
2016-07-24T00:35:13.085Z,59.40
2016-07-24T00:36:17.806Z,59.20
2016-07-24T00:37:16.407Z,is
2016-07-24T00:38:11.525Z,59.30
2016-07-24T00:39:17.379Z,59.50
2016-07-24T00:40:13.641Z,59.40
2016-07-24T00:41:12.382Z,59.30
2016-07-24T00:42:14.511Z,59.40
2016-07-24T00:43:12.533Z,59.40
2016-07-24T00:44:12.028Z,59.30
2016-07-24T00:45:14.704Z,59.40
2016-07-24T00:46:13.357Z,59.30
2016-07-24T00:47:15.632Z,59.20
2016-07-24T00:48:12.812Z,59.20
2016-07-24T00:49:13.070Z,59.30
2016-07-24T00:50:14.220Z,59.20
2016-07-24T00:51:13.825Z,59.20
2016-07-24T00:52:11.902Z,59.30
2016-07-24T00:53:14.773Z,59.40
2016-07-24T00:54:20.742Z,59.30
2016-07-24T00:55:16.309Z,59.70
2016-07-24T00:56:12.614Z,59.30
2016-07-24T00:57:15.305Z,59.30
2016-07-24T00:58:19.514Z,59.20
2016-07-24T00:59:19.312Z,59.20
2016-07-24T01:00:17.600Z,59.20
2016-07-24T01:01:17.584Z,59.20
2016-07-24T01:02:13.927Z,59.20
2016-07-24T01:03:17.389Z,59.30
2016-07-24T01:04:12.121Z,59.20
2016-07-24T01:05:21.078Z,59.30
2016-07-24T01:06:13.987Z,59.20
2016-07-24T01:07:18.503Z,59.20
2016-07-24T01:08:14.654Z,59.20
2016-07-24T01:09:18.372Z,59.70
2016-07-24T01:10:14.119Z,59.40
2016-07-24T01:11:14.397Z,59.30
2016-07-24T01:12:10.858Z,is
2016-07-24T01:13:12.651Z,59.20
2016-07-24T01:14:21.490Z,59.30
2016-07-24T01:15:15.707Z,59.20
2016-07-24T01:16:13.074Z,59.30
2016-07-24T01:17:13.910Z,59.20
2016-07-24T01:18:14.013Z,59.20
2016-07-24T01:19:12.581Z,59.20
2016-07-24T01:20:18.135Z,59.20
2016-07-24T01:21:18.175Z,59.20
2016-07-24T01:22:14.987Z,59.20
2016-07-24T01:23:12.025Z,59.20
2016-07-24T01:24:15.949Z,59.20
2016-07-24T01:25:13.557Z,59.30
2016-07-24T01:26:11.796Z,59.20
2016-07-24T01:27:16.816Z,59.20
2016-07-24T01:28:15.463Z,59.20
2016-07-24T01:29:11.177Z,is
2016-07-24T01:30:14.062Z,59.20
2016-07-24T01:31:15.956Z,59.10
2016-07-24T01:32:12.554Z,59.20
2016-07-24T01:33:15.154Z,59.30
2016-07-24T01:34:19.346Z,59.20
2016-07-24T01:35:18.247Z,59.20
2016-07-24T01:36:12.756Z,59.20
2016-07-24T01:37:12.364Z,59.20
2016-07-24T01:38:12.599Z,59.10
2016-07-24T01:39:18.702Z,59.30
2016-07-24T01:40:12.104Z,59.20
2016-07-24T01:41:14.685Z,59.20
2016-07-24T01:42:13.241Z,59.20
2016-07-24T01:43:12.899Z,59.20
2016-07-24T01:44:11.648Z,59.20
2016-07-24T01:45:18.724Z,59.30
2016-07-24T01:46:12.502Z,59.20
2016-07-24T01:47:12.296Z,59.20
2016-07-24T01:48:12.536Z,59.20
2016-07-24T01:49:12.914Z,59.30
2016-07-24T01:50:13.437Z,59.20
2016-07-24T01:51:12.519Z,59.20
2016-07-24T01:52:20.790Z,59.10
2016-07-24T01:53:16.427Z,59.20
2016-07-24T01:54:15.906Z,59.20
2016-07-24T01:55:17.205Z,59.30
2016-07-24T01:56:12.591Z,59.20
2016-07-24T01:57:16.913Z,59.20
2016-07-24T01:58:14.030Z,59.20
2016-07-24T01:59:15.654Z,59.20
2016-07-24T02:00:16.298Z,59.20
2016-07-24T02:01:12.171Z,is
2016-07-24T02:02:11.612Z,is
2016-07-24T02:03:19.964Z,59.20
2016-07-24T02:04:14.702Z,59.20
2016-07-24T02:05:16.750Z,59.20
2016-07-24T02:06:18.432Z,59.20
2016-07-24T02:07:13.388Z,59.20
2016-07-24T02:08:15.483Z,59.30
2016-07-24T02:09:17.262Z,59.20
2016-07-24T02:10:20.512Z,59.20
2016-07-24T02:11:14.204Z,59.20
2016-07-24T02:12:22.067Z,59.10
2016-07-24T02:13:13.131Z,59.20
2016-07-24T02:14:16.462Z,59.20
2016-07-24T02:15:10.650Z,is
2016-07-24T02:16:12.067Z,59.20
2016-07-24T02:17:13.868Z,59.20
2016-07-24T02:18:13.096Z,59.20
2016-07-24T02:19:14.821Z,59.20
2016-07-24T02:20:17.107Z,59.20
2016-07-24T02:21:22.370Z,59.20
2016-07-24T02:22:10.860Z,is
2016-07-24T02:23:13.993Z,59.40
2016-07-24T02:24:12.807Z,59.20
2016-07-24T02:25:13.516Z,59.20
2016-07-24T02:26:12.509Z,59.10
2016-07-24T02:27:13.574Z,59.20
2016-07-24T02:28:16.715Z,59.30
2016-07-24T02:29:14.755Z,59.30
2016-07-24T02:30:15.618Z,59.20
2016-07-24T02:31:18.771Z,59.20
2016-07-24T02:32:12.411Z,59.20
2016-07-24T02:33:14.450Z,59.30
2016-07-24T02:34:25.839Z,59.30
2016-07-24T02:35:11.943Z,is
2016-07-24T02:36:11.700Z,59.20
2016-07-24T02:37:13.075Z,59.30
2016-07-24T02:38:12.772Z,59.30
2016-07-24T02:39:12.711Z,59.40
2016-07-24T02:40:18.725Z,59.20
2016-07-24T02:41:17.774Z,59.20
2016-07-24T02:42:12.694Z,59.20
2016-07-24T02:43:15.373Z,59.20
2016-07-24T02:44:12.412Z,59.20
2016-07-24T02:45:14.257Z,59.30
2016-07-24T02:46:16.568Z,59.20
2016-07-24T02:47:12.334Z,59.20
2016-07-24T02:48:14.171Z,59.20
2016-07-24T02:49:13.228Z,59.20
2016-07-24T02:50:11.981Z,59.20
2016-07-24T02:51:12.294Z,59.20
2016-07-24T02:52:13.055Z,59.20
2016-07-24T02:53:13.181Z,is
2016-07-24T02:54:19.861Z,59.10
2016-07-24T02:55:15.906Z,59.20
2016-07-24T02:56:17.347Z,59.10
2016-07-24T02:57:15.273Z,59.20
2016-07-24T02:58:13.528Z,59.00
2016-07-24T02:59:14.578Z,59.10
2016-07-24T03:00:13.822Z,59.20
2016-07-24T03:01:12.369Z,59.10
2016-07-24T03:02:11.717Z,59.10
2016-07-24T03:03:14.690Z,59.00
2016-07-24T03:04:13.623Z,59.10
2016-07-24T03:05:21.635Z,59.20
2016-07-24T03:06:13.385Z,59.00
2016-07-24T03:07:16.621Z,59.20
2016-07-24T03:08:12.886Z,is
2016-07-24T03:09:14.277Z,59.10
2016-07-24T03:10:21.091Z,59.10
2016-07-24T03:11:13.071Z,59.20
2016-07-24T03:12:13.734Z,59.10
2016-07-24T03:13:14.549Z,59.10
2016-07-24T03:14:16.842Z,59.20
2016-07-24T03:15:20.932Z,59.10
2016-07-24T03:16:12.957Z,59.20
2016-07-24T03:17:20.261Z,59.00
2016-07-24T03:18:12.880Z,59.10
2016-07-24T03:19:17.190Z,59.10
2016-07-24T03:20:15.123Z,59.20
2016-07-24T03:21:13.013Z,59.10
2016-07-24T03:22:15.958Z,59.60
2016-07-24T03:23:14.074Z,59.10
2016-07-24T03:24:12.302Z,59.00
2016-07-24T03:25:21.156Z,59.10
2016-07-24T03:26:20.067Z,59.10
2016-07-24T03:27:13.739Z,is
2016-07-24T03:28:13.233Z,59.10
2016-07-24T03:29:13.284Z,59.00
2016-07-24T03:30:17.299Z,59.20
2016-07-24T03:31:15.005Z,59.10
2016-07-24T03:32:22.935Z,59.00
2016-07-24T03:33:14.530Z,59.00
2016-07-24T03:34:14.203Z,58.90
2016-07-24T03:35:15.924Z,59.10
2016-07-24T03:36:21.616Z,59.00
2016-07-24T03:37:13.853Z,59.00
2016-07-24T03:38:11.981Z,58.90
2016-07-24T03:39:16.037Z,59.10
2016-07-24T03:40:17.037Z,58.90
2016-07-24T03:41:13.971Z,59.00
2016-07-24T03:42:18.293Z,59.10
2016-07-24T03:43:22.505Z,59.00
2016-07-24T03:44:20.829Z,59.00
2016-07-24T03:45:15.811Z,59.00
2016-07-24T03:46:17.259Z,59.10
2016-07-24T03:47:17.610Z,59.00
2016-07-24T03:48:13.280Z,is
2016-07-24T03:49:14.655Z,59.00
2016-07-24T03:50:12.648Z,59.10
2016-07-24T03:51:16.647Z,58.90
2016-07-24T03:52:14.533Z,is
2016-07-24T03:53:12.864Z,59.00
2016-07-24T03:54:11.707Z,58.90
2016-07-24T03:55:13.276Z,58.90
2016-07-24T03:56:13.032Z,58.90
2016-07-24T03:57:22.904Z,59.00
2016-07-24T03:58:13.336Z,58.90
2016-07-24T03:59:14.030Z,58.20
2016-07-24T04:00:12.719Z,59.00
2016-07-24T04:01:13.482Z,58.90
2016-07-24T04:02:15.230Z,58.90
2016-07-24T04:03:14.800Z,58.90
2016-07-24T04:04:13.093Z,58.80
2016-07-24T04:05:12.313Z,58.90
2016-07-24T04:06:14.890Z,58.90
2016-07-24T04:07:13.125Z,58.80
2016-07-24T04:08:16.008Z,59.00
2016-07-24T04:09:12.013Z,58.80
2016-07-24T04:10:14.933Z,58.80
2016-07-24T04:11:17.341Z,58.70
2016-07-24T04:12:17.515Z,58.90
2016-07-24T04:13:11.237Z,58.80
2016-07-24T04:14:14.804Z,58.90
2016-07-24T04:15:22.866Z,58.80
2016-07-24T04:16:13.283Z,58.80
2016-07-24T04:17:16.077Z,58.80
2016-07-24T04:18:19.761Z,58.90
2016-07-24T04:19:18.140Z,58.90
2016-07-24T04:20:13.925Z,is
2016-07-24T04:21:12.588Z,58.80
2016-07-24T04:22:16.909Z,58.80
2016-07-24T04:23:21.242Z,58.80
2016-07-24T04:24:13.506Z,58.90
2016-07-24T04:25:15.974Z,58.80
2016-07-24T04:26:11.541Z,58.80
2016-07-24T04:27:12.331Z,58.90
2016-07-24T04:28:12.695Z,58.90
2016-07-24T04:29:12.477Z,59.20
2016-07-24T04:30:14.949Z,is
2016-07-24T04:31:20.014Z,58.90
2016-07-24T04:32:19.340Z,58.80
2016-07-24T04:33:16.705Z,58.80
2016-07-24T04:34:16.476Z,58.80
2016-07-24T04:35:15.809Z,58.90
2016-07-24T04:36:15.077Z,58.80
2016-07-24T04:37:21.835Z,58.90
2016-07-24T04:38:10.809Z,is
2016-07-24T04:39:15.003Z,58.90
2016-07-24T04:40:14.885Z,58.90
2016-07-24T04:41:16.802Z,58.80
2016-07-24T04:42:20.895Z,58.80
2016-07-24T04:43:21.167Z,59.10
2016-07-24T04:44:20.160Z,58.90
2016-07-24T04:45:19.025Z,58.90
2016-07-24T04:46:14.786Z,58.80
2016-07-24T04:47:14.431Z,59.00
2016-07-24T04:48:14.766Z,58.80
2016-07-24T04:49:14.862Z,58.90
2016-07-24T04:50:12.667Z,58.90
2016-07-24T04:51:18.237Z,58.90
2016-07-24T04:52:17.326Z,58.80
2016-07-24T04:53:13.544Z,58.90
2016-07-24T04:54:20.729Z,58.70
2016-07-24T04:55:13.704Z,58.70
2016-07-24T04:56:17.110Z,58.70
2016-07-24T04:57:19.842Z,58.80
2016-07-24T04:58:16.560Z,is
2016-07-24T04:59:16.594Z,58.70
2016-07-24T05:00:16.677Z,58.80
2016-07-24T05:01:09.762Z,is
2016-07-24T05:02:12.928Z,58.80
2016-07-24T05:03:15.365Z,58.70
2016-07-24T05:04:12.312Z,58.70
2016-07-24T05:05:13.752Z,58.70
2016-07-24T05:06:18.157Z,58.80
2016-07-24T05:07:13.514Z,58.70
2016-07-24T05:08:16.421Z,58.70
2016-07-24T05:09:15.706Z,58.70
2016-07-24T05:10:15.653Z,58.70
2016-07-24T05:11:17.939Z,58.70
2016-07-24T05:12:20.787Z,58.70
2016-07-24T05:13:14.164Z,58.70
2016-07-24T05:14:21.503Z,58.70
2016-07-24T05:15:16.519Z,58.70
2016-07-24T05:16:13.647Z,58.70
2016-07-24T05:17:15.574Z,58.60
2016-07-24T05:18:13.454Z,58.70
2016-07-24T05:19:18.806Z,58.60
2016-07-24T05:20:12.487Z,58.70
2016-07-24T05:21:10.898Z,is
2016-07-24T05:22:11.455Z,58.60
2016-07-24T05:23:11.890Z,58.60
2016-07-24T05:24:14.506Z,58.60
2016-07-24T05:25:17.067Z,58.60
2016-07-24T05:26:12.668Z,58.50
2016-07-24T05:27:17.389Z,58.60
2016-07-24T05:28:10.237Z,is
2016-07-24T05:29:17.606Z,58.60
2016-07-24T05:30:20.984Z,58.50
2016-07-24T05:31:20.979Z,58.60
2016-07-24T05:32:15.359Z,58.70
2016-07-24T05:33:12.480Z,58.60
2016-07-24T05:34:12.796Z,58.60
2016-07-24T05:35:12.197Z,58.60
2016-07-24T05:36:14.238Z,58.60
2016-07-24T05:37:13.342Z,58.50
2016-07-24T05:38:11.922Z,58.50
2016-07-24T05:39:12.351Z,58.50
2016-07-24T05:40:19.532Z,58.50
2016-07-24T05:41:13.028Z,58.50
2016-07-24T05:42:14.981Z,57.70
2016-07-24T05:43:16.368Z,is
2016-07-24T05:44:11.754Z,58.70
2016-07-24T05:45:17.493Z,58.50
2016-07-24T05:46:14.905Z,58.40
2016-07-24T05:47:12.366Z,58.30
2016-07-24T05:48:15.063Z,58.40
2016-07-24T05:49:18.677Z,58.50
2016-07-24T05:50:17.528Z,58.60
2016-07-24T05:51:10.869Z,is
2016-07-24T05:52:18.086Z,58.50
2016-07-24T05:53:12.534Z,58.40
2016-07-24T05:54:13.443Z,58.40
2016-07-24T05:55:15.537Z,58.60
2016-07-24T05:56:12.363Z,58.50
2016-07-24T05:57:13.224Z,58.40
2016-07-24T05:58:18.556Z,58.40
2016-07-24T05:59:13.120Z,58.40
2016-07-24T06:00:13.060Z,58.40
2016-07-24T06:01:18.048Z,58.50
2016-07-24T06:02:21.736Z,58.50
2016-07-24T06:03:19.275Z,58.40
2016-07-24T06:04:15.391Z,58.40
2016-07-24T06:05:20.079Z,58.50
2016-07-24T06:06:14.942Z,58.30
2016-07-24T06:07:13.446Z,58.40
2016-07-24T06:08:15.253Z,58.20
2016-07-24T06:09:17.442Z,58.40
2016-07-24T06:10:11.570Z,58.10
2016-07-24T06:11:14.512Z,58.50
2016-07-24T06:12:12.916Z,58.50
2016-07-24T06:13:14.757Z,58.90
2016-07-24T06:14:21.178Z,59.70
2016-07-24T06:15:13.983Z,59.70
2016-07-24T06:16:12.979Z,59.70
2016-07-24T06:17:13.156Z,59.80
2016-07-24T06:18:16.285Z,59.70
2016-07-24T06:19:13.778Z,59.10
2016-07-24T06:20:13.974Z,59.20
2016-07-24T06:21:12.622Z,59.20
2016-07-24T06:22:11.704Z,59.00
2016-07-24T06:23:17.617Z,59.60
2016-07-24T06:24:19.140Z,59.10
2016-07-24T06:25:13.384Z,59.20
2016-07-24T06:26:10.285Z,is
2016-07-24T06:27:12.839Z,59.70
2016-07-24T06:28:19.989Z,59.60
2016-07-24T06:29:15.797Z,59.30
2016-07-24T06:30:17.492Z,59.10
2016-07-24T06:31:12.005Z,59.50
2016-07-24T06:32:12.833Z,59.80
2016-07-24T06:33:12.789Z,59.70
2016-07-24T06:34:15.369Z,59.80
2016-07-24T06:35:15.217Z,59.70
2016-07-24T06:36:18.989Z,59.80
2016-07-24T06:37:12.481Z,59.60
2016-07-24T06:38:12.882Z,59.70
2016-07-24T06:39:13.078Z,59.70
2016-07-24T06:40:14.731Z,59.70
2016-07-24T06:41:16.792Z,59.70
2016-07-24T06:42:15.176Z,59.60
2016-07-24T06:43:14.668Z,59.70
2016-07-24T06:44:12.466Z,59.60
2016-07-24T06:45:12.885Z,59.60
2016-07-24T06:46:15.905Z,59.70
2016-07-24T06:47:11.992Z,59.60
2016-07-24T06:48:12.508Z,59.60
2016-07-24T06:49:10.472Z,is
2016-07-24T06:50:17.353Z,59.70
2016-07-24T06:51:21.867Z,59.60
2016-07-24T06:52:12.996Z,59.70
2016-07-24T06:53:14.574Z,59.70
2016-07-24T06:54:15.106Z,59.60
2016-07-24T06:55:22.632Z,59.70
2016-07-24T06:56:16.621Z,59.70
2016-07-24T06:57:14.422Z,59.70
2016-07-24T06:58:12.441Z,59.70
2016-07-24T06:59:18.278Z,59.70
2016-07-24T07:00:11.420Z,is
2016-07-24T07:01:12.416Z,59.70
2016-07-24T07:02:14.296Z,59.60
2016-07-24T07:03:17.769Z,59.70
2016-07-24T07:04:26.628Z,59.50
2016-07-24T07:05:15.648Z,59.60
2016-07-24T07:06:14.180Z,59.60
2016-07-24T07:07:12.429Z,59.70
2016-07-24T07:08:17.243Z,59.70
2016-07-24T07:09:12.553Z,59.70
2016-07-24T07:10:15.546Z,59.60
2016-07-24T07:11:13.377Z,59.70
2016-07-24T07:12:17.170Z,59.90
2016-07-24T07:13:17.191Z,59.60
2016-07-24T07:14:10.906Z,is
2016-07-24T07:15:17.000Z,59.60
2016-07-24T07:16:18.313Z,59.60
2016-07-24T07:17:23.072Z,59.70
2016-07-24T07:18:11.904Z,is
2016-07-24T07:19:15.075Z,59.70
2016-07-24T07:20:14.838Z,59.70
2016-07-24T07:21:12.691Z,59.70
2016-07-24T07:22:13.431Z,59.60
2016-07-24T07:23:14.877Z,59.60
2016-07-24T07:24:13.895Z,59.60
2016-07-24T07:25:14.883Z,59.70
2016-07-24T07:26:13.042Z,59.60
2016-07-24T07:27:14.719Z,59.60
2016-07-24T07:28:17.388Z,is
2016-07-24T07:29:15.342Z,59.70
2016-07-24T07:30:16.028Z,59.70
2016-07-24T07:31:12.623Z,59.70
2016-07-24T07:32:15.646Z,59.60
2016-07-24T07:33:15.444Z,59.70
2016-07-24T07:34:14.228Z,59.60
2016-07-24T07:35:13.650Z,59.70
2016-07-24T07:36:16.695Z,59.60
2016-07-24T07:37:16.577Z,59.60
2016-07-24T07:38:16.834Z,59.60
2016-07-24T07:39:20.701Z,59.70
2016-07-24T07:40:18.679Z,59.80
2016-07-24T07:41:12.990Z,59.60
2016-07-24T07:42:16.528Z,59.70
2016-07-24T07:43:22.016Z,59.80
2016-07-24T07:44:13.347Z,is
2016-07-24T07:45:14.206Z,59.50
2016-07-24T07:46:14.829Z,59.80
2016-07-24T07:47:17.764Z,59.60
2016-07-24T07:48:14.638Z,59.70
2016-07-24T07:49:13.046Z,59.10
2016-07-24T07:50:12.245Z,59.50
2016-07-24T07:51:13.314Z,59.40
2016-07-24T07:52:12.623Z,58.90
2016-07-24T07:53:13.432Z,58.80
2016-07-24T07:54:13.327Z,58.80
2016-07-24T07:55:18.683Z,58.90
2016-07-24T07:56:17.749Z,59.30
2016-07-24T07:57:15.833Z,58.80
2016-07-24T07:58:12.314Z,59.40
2016-07-24T07:59:18.149Z,59.80
2016-07-24T08:00:17.498Z,59.70
2016-07-24T08:01:13.401Z,59.80
2016-07-24T08:02:15.514Z,59.70
2016-07-24T08:03:15.819Z,59.70
2016-07-24T08:04:12.362Z,59.70
2016-07-24T08:05:14.476Z,59.70
2016-07-24T08:06:12.033Z,59.30
2016-07-24T08:07:14.569Z,59.80
2016-07-24T08:08:18.164Z,59.80
2016-07-24T08:09:14.411Z,59.70
2016-07-24T08:10:12.753Z,59.70
2016-07-24T08:11:16.597Z,59.60
2016-07-24T08:12:12.599Z,59.20
2016-07-24T08:13:16.330Z,59.40
2016-07-24T08:14:12.883Z,59.30
2016-07-24T08:15:12.752Z,is
2016-07-24T08:16:12.631Z,58.90
2016-07-24T08:17:14.102Z,59.00
2016-07-24T08:18:11.681Z,is
2016-07-24T08:19:14.559Z,59.30
2016-07-24T08:20:12.243Z,58.70
2016-07-24T08:21:20.823Z,59.00
2016-07-24T08:22:14.832Z,59.10
2016-07-24T08:23:19.495Z,58.60
2016-07-24T08:24:13.366Z,58.70
2016-07-24T08:25:12.718Z,59.00
2016-07-24T08:26:14.302Z,58.50
2016-07-24T08:27:12.718Z,58.50
2016-07-24T08:28:11.588Z,58.40
2016-07-24T08:29:13.637Z,58.30
2016-07-24T08:30:13.719Z,58.80
2016-07-24T08:31:15.332Z,58.50
2016-07-24T08:32:15.902Z,58.30
2016-07-24T08:33:13.639Z,58.50
2016-07-24T08:34:12.244Z,is
2016-07-24T08:35:20.001Z,58.50
2016-07-24T08:36:13.718Z,58.50
2016-07-24T08:37:13.263Z,58.70
2016-07-24T08:38:17.930Z,58.80
2016-07-24T08:39:11.609Z,58.90
2016-07-24T08:40:12.410Z,59.00
2016-07-24T08:41:15.540Z,58.90
2016-07-24T08:42:13.650Z,is
2016-07-24T08:43:18.799Z,58.90
2016-07-24T08:44:21.249Z,58.70
2016-07-24T08:45:12.358Z,58.70
2016-07-24T08:46:13.744Z,58.80
2016-07-24T08:47:17.872Z,58.50
2016-07-24T08:48:16.740Z,58.70
2016-07-24T08:49:13.900Z,58.80
2016-07-24T08:50:17.108Z,is
2016-07-24T08:51:12.339Z,58.60
2016-07-24T08:52:16.966Z,58.40
2016-07-24T08:53:12.503Z,58.50
2016-07-24T08:54:15.012Z,58.30
2016-07-24T08:55:15.557Z,58.20
2016-07-24T08:56:14.587Z,58.40
2016-07-24T08:57:16.571Z,58.30
2016-07-24T08:58:21.504Z,58.20
2016-07-24T08:59:13.762Z,58.20
2016-07-24T09:00:15.671Z,58.30
2016-07-24T09:01:14.925Z,58.10
2016-07-24T09:02:12.594Z,58.10
2016-07-24T09:03:15.108Z,58.20
2016-07-24T09:04:16.048Z,58.20
2016-07-24T09:05:15.214Z,58.20
2016-07-24T09:06:16.074Z,58.20
2016-07-24T09:07:17.245Z,58.20
2016-07-24T09:08:14.743Z,58.20
2016-07-24T09:09:15.746Z,is
2016-07-24T09:10:13.558Z,58.20
2016-07-24T09:11:14.307Z,58.20
2016-07-24T09:12:14.233Z,58.30
2016-07-24T09:13:14.019Z,58.20
2016-07-24T09:14:14.418Z,58.20
2016-07-24T09:15:11.839Z,58.00
2016-07-24T09:16:19.475Z,58.20
2016-07-24T09:17:12.955Z,58.20
2016-07-24T09:18:15.872Z,58.10
2016-07-24T09:19:15.513Z,58.10
2016-07-24T09:20:11.057Z,is
2016-07-24T09:21:16.379Z,58.10
2016-07-24T09:22:13.420Z,58.10
2016-07-24T09:23:12.281Z,58.10
2016-07-24T09:24:14.168Z,58.10
2016-07-24T09:25:14.569Z,58.20
2016-07-24T09:26:11.841Z,is
2016-07-24T09:27:21.432Z,58.30
2016-07-24T09:28:17.319Z,58.20
2016-07-24T09:29:13.578Z,is
2016-07-24T09:30:11.401Z,58.10
2016-07-24T09:31:11.248Z,58.30
2016-07-24T09:32:12.421Z,58.30
2016-07-24T09:33:14.591Z,58.60
2016-07-24T09:34:17.361Z,58.50
2016-07-24T09:35:14.792Z,58.60
2016-07-24T09:36:14.818Z,58.70
2016-07-24T09:37:13.984Z,58.90
2016-07-24T09:38:16.100Z,58.70
2016-07-24T09:39:13.154Z,59.60
2016-07-24T09:40:14.090Z,59.60
2016-07-24T09:41:13.772Z,58.90
2016-07-24T09:42:12.918Z,58.70
2016-07-24T09:43:13.028Z,58.70
2016-07-24T09:44:15.186Z,58.90
2016-07-24T09:45:11.770Z,58.90
2016-07-24T09:46:11.081Z,is
2016-07-24T09:47:12.922Z,58.80
2016-07-24T09:48:10.906Z,is
2016-07-24T09:49:16.223Z,58.60
2016-07-24T09:50:15.086Z,58.50
2016-07-24T09:51:18.881Z,58.60
2016-07-24T09:52:12.141Z,58.40
2016-07-24T09:53:12.839Z,58.40
2016-07-24T09:54:15.920Z,58.20
2016-07-24T09:55:14.376Z,58.20
2016-07-24T09:56:20.300Z,58.20
2016-07-24T09:57:14.667Z,58.20
2016-07-24T09:58:12.133Z,58.00
2016-07-24T09:59:14.772Z,58.20
2016-07-24T10:00:12.760Z,58.50
2016-07-24T10:01:11.914Z,58.00
2016-07-24T10:02:16.460Z,58.20
2016-07-24T10:03:16.482Z,58.20
2016-07-24T10:04:16.950Z,58.20
2016-07-24T10:05:14.122Z,58.20
2016-07-24T10:06:13.482Z,58.20
2016-07-24T10:07:13.397Z,58.10
2016-07-24T10:08:14.862Z,57.90
2016-07-24T10:09:19.029Z,58.20
2016-07-24T10:10:16.376Z,58.80
2016-07-24T10:11:11.997Z,58.30
2016-07-24T10:12:12.919Z,58.30
2016-07-24T10:13:18.428Z,58.80
2016-07-24T10:14:15.100Z,58.70
2016-07-24T10:15:15.766Z,59.10
2016-07-24T10:16:15.592Z,59.10
2016-07-24T10:17:16.409Z,58.90
2016-07-24T10:18:12.803Z,59.10
2016-07-24T10:19:14.595Z,is
2016-07-24T10:20:13.951Z,59.20
2016-07-24T10:21:13.010Z,58.90
2016-07-24T10:22:16.479Z,58.90
2016-07-24T10:23:16.092Z,58.60
2016-07-24T10:24:12.031Z,58.80
2016-07-24T10:25:22.657Z,58.90
2016-07-24T10:26:10.266Z,is
2016-07-24T10:27:13.755Z,59.20
2016-07-24T10:28:20.878Z,59.20
2016-07-24T10:29:20.916Z,59.00
2016-07-24T10:30:13.700Z,58.80
2016-07-24T10:31:13.866Z,59.00
2016-07-24T10:32:13.257Z,58.90
2016-07-24T10:33:13.551Z,58.80
2016-07-24T10:34:11.315Z,is
2016-07-24T10:35:12.912Z,58.20
2016-07-24T10:36:16.129Z,58.10
2016-07-24T10:37:12.587Z,58.40
2016-07-24T10:38:18.452Z,58.40
2016-07-24T10:39:12.115Z,58.60
2016-07-24T10:40:16.430Z,58.70
2016-07-24T10:41:14.182Z,58.40
2016-07-24T10:42:12.282Z,58.50
2016-07-24T10:43:12.385Z,58.40
2016-07-24T10:44:12.454Z,58.40
2016-07-24T10:45:16.482Z,58.50
2016-07-24T10:46:10.399Z,is
2016-07-24T10:47:15.416Z,58.00
2016-07-24T10:48:12.071Z,57.90
2016-07-24T10:49:15.225Z,57.90
2016-07-24T10:50:15.835Z,57.80
2016-07-24T10:51:21.349Z,57.70
2016-07-24T10:52:12.550Z,57.90
2016-07-24T10:53:11.374Z,57.80
2016-07-24T10:54:14.665Z,57.80
2016-07-24T10:55:14.558Z,57.60
2016-07-24T10:56:15.204Z,57.90
2016-07-24T10:57:12.314Z,57.90
2016-07-24T10:58:15.219Z,58.00
2016-07-24T10:59:15.706Z,58.00
2016-07-24T11:00:17.001Z,57.90
2016-07-24T11:01:16.368Z,57.90
2016-07-24T11:02:14.264Z,58.50
2016-07-24T11:03:15.818Z,57.80
2016-07-24T11:04:11.505Z,57.50
2016-07-24T11:05:13.704Z,57.90
2016-07-24T11:06:19.063Z,57.70
2016-07-24T11:07:17.488Z,57.70
2016-07-24T11:08:12.297Z,57.90
2016-07-24T11:09:14.123Z,57.80
2016-07-24T11:10:14.828Z,57.90
2016-07-24T11:11:12.810Z,57.90
2016-07-24T11:12:13.044Z,57.70
2016-07-24T11:13:10.722Z,is
2016-07-24T11:14:13.653Z,57.80
2016-07-24T11:15:14.559Z,57.80
2016-07-24T11:16:12.614Z,57.70
2016-07-24T11:17:12.077Z,58.40
2016-07-24T11:18:13.294Z,57.70
2016-07-24T11:19:14.031Z,57.70
2016-07-24T11:20:18.072Z,57.70
2016-07-24T11:21:13.371Z,57.70
2016-07-24T11:22:18.163Z,57.80
2016-07-24T11:23:14.103Z,57.70
2016-07-24T11:24:14.635Z,57.60
2016-07-24T11:25:14.055Z,57.70
2016-07-24T11:26:12.638Z,57.70
2016-07-24T11:27:14.708Z,57.70
2016-07-24T11:28:12.532Z,57.70
2016-07-24T11:29:16.482Z,57.80
2016-07-24T11:30:16.606Z,57.70
2016-07-24T11:31:14.793Z,57.80
2016-07-24T11:32:16.338Z,is
2016-07-24T11:33:14.754Z,57.70
2016-07-24T11:34:22.578Z,57.80
2016-07-24T11:35:15.716Z,57.80
2016-07-24T11:36:10.517Z,is
2016-07-24T11:37:17.453Z,57.80
2016-07-24T11:38:13.623Z,58.00
2016-07-24T11:39:16.456Z,57.80
2016-07-24T11:40:20.116Z,57.80
2016-07-24T11:41:11.962Z,57.90
2016-07-24T11:42:15.966Z,57.80
2016-07-24T11:43:13.052Z,57.80
2016-07-24T11:44:14.883Z,57.70
2016-07-24T11:45:14.765Z,57.80
2016-07-24T11:46:12.482Z,57.70
2016-07-24T11:47:12.096Z,57.70
2016-07-24T11:48:21.273Z,57.80
2016-07-24T11:49:12.657Z,57.70
2016-07-24T11:50:12.361Z,57.70
2016-07-24T11:51:13.502Z,57.60
2016-07-24T11:52:14.605Z,57.70
2016-07-24T11:53:13.936Z,is
2016-07-24T11:54:12.809Z,57.60
2016-07-24T11:55:12.157Z,57.00
2016-07-24T11:56:13.025Z,57.60
2016-07-24T11:57:12.475Z,57.40
2016-07-24T11:58:13.909Z,57.60
2016-07-24T11:59:12.792Z,57.60
2016-07-24T12:00:11.820Z,57.50
2016-07-24T12:01:13.311Z,57.60
2016-07-24T12:02:10.181Z,is
2016-07-24T12:03:13.308Z,57.70
2016-07-24T12:04:11.676Z,57.60
2016-07-24T12:05:13.884Z,57.50
2016-07-24T12:06:11.768Z,is
2016-07-24T12:07:13.408Z,57.60
2016-07-24T12:08:10.482Z,is
2016-07-24T12:09:15.335Z,57.60
2016-07-24T12:10:16.484Z,57.40
2016-07-24T12:11:12.232Z,57.50
2016-07-24T12:12:16.329Z,57.30
2016-07-24T12:13:19.356Z,57.50
2016-07-24T12:14:14.890Z,57.60
2016-07-24T12:15:12.230Z,57.20
2016-07-24T12:16:12.421Z,57.50
2016-07-24T12:17:12.215Z,57.40
2016-07-24T12:18:11.353Z,57.50
2016-07-24T12:19:11.270Z,57.40
2016-07-24T12:20:10.112Z,is
2016-07-24T12:21:12.103Z,57.40
2016-07-24T12:22:16.958Z,57.50
2016-07-24T12:23:14.026Z,57.50
2016-07-24T12:24:20.063Z,57.50
2016-07-24T12:25:12.888Z,is
2016-07-24T12:26:12.564Z,57.30
2016-07-24T12:27:11.829Z,57.40
2016-07-24T12:28:14.243Z,57.30
2016-07-24T12:29:13.125Z,57.40
2016-07-24T12:30:14.691Z,57.40
2016-07-24T12:31:13.241Z,57.40
2016-07-24T12:32:15.398Z,57.40
2016-07-24T12:33:14.936Z,57.20
2016-07-24T12:34:16.333Z,57.30
2016-07-24T12:35:14.358Z,57.40
2016-07-24T12:36:12.525Z,57.60
2016-07-24T12:37:19.150Z,57.30
2016-07-24T12:38:15.559Z,57.30
2016-07-24T12:39:14.207Z,57.30
2016-07-24T12:40:16.874Z,57.30
2016-07-24T12:41:14.799Z,57.40
2016-07-24T12:42:17.521Z,57.20
2016-07-24T12:43:15.036Z,57.20
2016-07-24T12:44:15.730Z,57.30
2016-07-24T12:45:14.607Z,57.30
2016-07-24T12:46:16.015Z,57.40
2016-07-24T12:47:16.925Z,57.30
2016-07-24T12:48:16.542Z,57.30
2016-07-24T12:49:13.127Z,57.30
2016-07-24T12:50:13.840Z,57.30
2016-07-24T12:51:12.904Z,57.30
2016-07-24T12:52:13.729Z,57.20
2016-07-24T12:53:13.512Z,57.20
2016-07-24T12:54:13.061Z,57.20
2016-07-24T12:55:13.781Z,is
2016-07-24T12:56:12.740Z,57.10
2016-07-24T12:57:11.464Z,is
2016-07-24T12:58:15.702Z,57.10